createdAt,value
2022-09-12T00:05:48.033Z,1.90
2022-09-12T00:11:49.857Z,1.70
2022-09-12T00:17:51.953Z,1.70
2022-09-12T00:23:54.117Z,2.00
2022-09-12T00:29:55.935Z,1.90
2022-09-12T00:35:57.785Z,1.70
2022-09-12T00:41:59.709Z,2.10
2022-09-12T00:48:04.695Z,1.90
2022-09-12T00:54:14.559Z,1.63
2022-09-12T01:00:38.817Z,1.80
2022-09-12T01:06:43.460Z,1.50
2022-09-12T01:12:45.815Z,1.50
2022-09-12T01:33:13.217Z,1.90
2022-09-12T01:52:51.216Z,2.13
2022-09-12T01:59:22.596Z,1.73
2022-09-12T02:18:48.830Z,1.93
2022-09-12T02:24:55.788Z,2.23
2022-09-12T02:37:52.047Z,1.80
2022-09-12T02:43:54.198Z,1.50
2022-09-12T02:49:57.278Z,2.03
2022-09-12T02:55:59.401Z,2.13
2022-09-12T03:02:16.470Z,2.10
2022-09-12T03:08:27.411Z,2.40
2022-09-12T03:14:53.006Z,2.13
2022-09-12T03:21:28.369Z,2.70
2022-09-12T03:27:49.779Z,2.37
2022-09-12T03:40:08.643Z,2.47
2022-09-12T03:46:11.969Z,3.30
2022-09-12T03:52:13.715Z,2.80
2022-09-12T03:58:15.576Z,2.83
2022-09-12T04:04:17.480Z,2.90
2022-09-12T04:10:19.462Z,3.07
2022-09-12T04:16:24.989Z,3.20
2022-09-12T04:22:27.266Z,2.63
2022-09-12T04:28:30.285Z,2.27
2022-09-12T04:34:32.655Z,2.70
2022-09-12T04:40:34.474Z,2.70
2022-09-12T04:46:39.453Z,2.90
2022-09-12T04:52:42.424Z,2.30
2022-09-12T04:58:44.456Z,2.10
2022-09-12T05:04:47.090Z,2.17
2022-09-12T05:10:48.924Z,2.47
2022-09-12T05:16:50.747Z,2.73
2022-09-12T05:22:52.585Z,2.10
2022-09-12T05:28:55.301Z,2.33
2022-09-12T05:34:57.088Z,2.57
2022-09-12T05:41:17.491Z,2.50
2022-09-12T05:47:20.912Z,2.60
2022-09-12T05:53:29.992Z,2.40
2022-09-12T05:59:35.162Z,4.50
2022-09-12T06:11:59.080Z,2.10
2022-09-12T06:30:41.433Z,2.00
2022-09-12T06:43:16.094Z,2.33
2022-09-12T07:02:27.188Z,2.40
2022-09-12T07:08:32.624Z,2.90
2022-09-12T07:21:02.531Z,2.87
2022-09-12T07:27:04.494Z,2.20
2022-09-12T07:33:17.028Z,2.20
2022-09-12T07:39:22.869Z,2.10
2022-09-12T07:45:28.430Z,2.00
2022-09-12T07:51:31.667Z,2.27
2022-09-12T08:03:58.261Z,2.70
2022-09-12T08:10:02.674Z,2.40
2022-09-12T08:16:07.471Z,2.03
2022-09-12T08:22:16.894Z,1.83
2022-09-12T08:28:22.827Z,2.30
2022-09-12T08:48:39.067Z,1.73
2022-09-12T08:54:48.981Z,1.30
2022-09-12T09:01:17.083Z,1.33
2022-09-12T09:07:50.951Z,2.00
2022-09-12T09:14:29.412Z,1.40
2022-09-12T09:28:07.343Z,1.30
2022-09-12T09:34:31.368Z,1.47
2022-09-12T09:40:57.273Z,1.23
2022-09-12T09:47:04.783Z,1.20
2022-09-12T09:53:23.497Z,1.00
2022-09-12T09:59:42.954Z,1.10
2022-09-12T10:06:02.337Z,0.83
2022-09-12T10:12:40.826Z,1.10
2022-09-12T10:18:44.060Z,0.97
2022-09-12T10:25:02.267Z,1.27
2022-09-12T10:31:29.880Z,0.80
2022-09-12T10:37:53.865Z,1.00
2022-09-12T10:50:43.475Z,1.07
2022-09-12T10:57:14.660Z,0.90
2022-09-12T11:03:40.942Z,0.80
2022-09-12T11:10:02.614Z,0.90
2022-09-12T11:16:17.277Z,0.93
2022-09-12T11:22:37.098Z,0.70
2022-09-12T11:29:14.217Z,0.60
2022-09-12T11:35:17.674Z,1.13
2022-09-12T11:47:52.529Z,0.97
2022-09-12T11:54:21.257Z,0.70
2022-09-12T12:00:36.481Z,0.73
2022-09-12T12:06:54.209Z,1.23
2022-09-12T12:12:58.366Z,0.80
2022-09-12T12:19:17.774Z,0.40
2022-09-12T12:25:22.924Z,0.50
2022-09-12T12:31:37.616Z,1.23
2022-09-12T12:37:40.380Z,0.60
2022-09-12T12:43:45.902Z,0.57
2022-09-12T12:50:06.464Z,0.97
2022-09-12T12:56:30.571Z,1.10
2022-09-12T13:02:44.413Z,0.50
2022-09-12T13:09:01.447Z,0.47
2022-09-12T13:15:54.456Z,0.50
2022-09-12T13:22:09.414Z,0.60
2022-09-12T13:28:11.446Z,0.53
2022-09-12T13:34:21.101Z,0.30
2022-09-12T13:40:48.732Z,0.77
2022-09-12T13:46:53.311Z,0.60
2022-09-12T13:53:02.176Z,0.53
2022-09-12T13:59:12.556Z,0.50
2022-09-12T14:05:22.707Z,0.60
2022-09-12T14:11:38.685Z,0.50
2022-09-12T14:23:58.161Z,0.53
2022-09-12T14:30:09.165Z,0.80
2022-09-12T14:36:36.663Z,0.70
2022-09-12T14:42:41.359Z,0.60
2022-09-12T14:49:00.287Z,0.40
2022-09-12T14:55:03.808Z,0.47
2022-09-12T15:01:08.688Z,0.53
2022-09-12T15:07:42.908Z,0.40
2022-09-12T15:13:44.780Z,0.40
2022-09-12T15:19:46.515Z,0.40
2022-09-12T15:25:48.368Z,0.60
2022-09-12T15:31:51.861Z,0.50
2022-09-12T15:37:53.506Z,0.50
2022-09-12T15:43:55.174Z,1.10
2022-09-12T15:49:56.782Z,0.60
2022-09-12T15:55:58.434Z,0.77
2022-09-12T16:02:00.266Z,0.80
2022-09-12T16:08:03.556Z,1.23
2022-09-12T16:14:05.876Z,0.97
2022-09-12T16:20:08.255Z,0.97
2022-09-12T16:26:09.941Z,0.97
2022-09-12T16:38:29.226Z,0.83
2022-09-12T16:44:34.721Z,0.80
2022-09-12T16:50:36.655Z,0.80
2022-09-12T16:56:39.105Z,0.70
2022-09-12T18:03:09.700Z,1.73
2022-09-12T18:09:11.368Z,1.65
2022-09-12T18:15:13.063Z,1.35
2022-09-12T18:21:14.679Z,1.88
2022-09-12T18:27:16.391Z,1.55
2022-09-12T18:33:21.994Z,1.92
2022-09-12T19:16:43.719Z,0.60
2022-09-12T19:48:20.840Z,0.70
2022-09-12T19:54:28.027Z,0.97
2022-09-12T20:32:33.471Z,1.83
2022-09-12T21:43:30.257Z,1.13
2022-09-12T22:08:53.804Z,1.27
2022-09-12T22:15:29.339Z,1.00
2022-09-12T22:21:30.627Z,1.23
2022-09-12T22:34:04.079Z,1.00
2022-09-12T22:40:06.883Z,0.90
2022-09-12T22:46:14.998Z,0.93
2022-09-12T22:52:26.759Z,1.23
2022-09-12T22:58:41.897Z,1.30
2022-09-12T23:51:26.511Z,0.70
